Pernille — 5BNZ2 — position and weather

sailwx.info

Track history (hours):
 
Tides and Currents Weather Stations Pressure Air Temp Water Temp Dewpoint Dewpoint Depression Visibility Wind Speed Wind Dir Waves Ship Positions

Pernille

Last reported at 2014-Aug-27 06:33 UTC. Time now 2014-Aug-27 11:09 UTC.
Position N 58°42' W 004°07'.

Length 82 m; draft 4.8 m.

Type: Cargo ship. MMSI: 212662000.

Date/timePositionNaut miles runAvg speedWind from/ knotsBaromVisibWave heightAir tempDewpointWater temp
2014-Aug-27 06:33N 58°42' W 004°07'10 9.9
2014-Aug-27 05:33N 58°43' W 003°48'1211.2
2014-Aug-27 04:31N 58°43' W 003°25'1414.8
2014-Aug-27 03:33N 58°40' W 002°59'6111.2
2014-Aug-26 22:08N 57°51' W 001°50'710.5
2014-Aug-26 21:30N 57°46' W 001°43'910.0
2014-Aug-26 20:33N 57°38' W 001°34'1110.8
2014-Aug-26 19:33N 57°27' W 001°33'1110.6
2014-Aug-26 18:33N 57°17' W 001°41'58 2.1
2014-Aug-25 15:13N 56°28' W 002°37'5 5.4
2014-Aug-25 14:21N 56°29' W 002°29'6 6.4
2014-Aug-25 13:28N 56°30' W 002°19'41110.5
2014-Aug-23 22:27N 57°49' E 010°06'910.2
2014-Aug-23 21:33N 57°48' E 010°23'1010.5
2014-Aug-23 20:34N 57°48' E 010°43'7 6.9
2014-Aug-23 19:33N 57°42' E 010°42'129 8.1
2014-Aug-23 03:34N 55°51' E 012°44'1111.4
2014-Aug-23 02:33N 55°40' E 012°42'1211.6
2014-Aug-23 01:34N 55°28' E 012°42'1110.5
2014-Aug-23 00:33N 55°18' E 012°45'1010.1
2014-Aug-22 23:33N 55°16' E 013°02'51 9.6
2014-Aug-22 18:12N 55°25' E 014°31'710.5
2014-Aug-22 17:31N 55°29' E 014°41'1110.3
2014-Aug-22 16:27N 55°35' E 014°58'4210.2
2014-Aug-22 12:22N 55°56' E 016°02'8 9.9
2014-Aug-22 11:33N 55°59' E 016°15'321 9.7
2014-Aug-21 02:33N 59°39' E 023°34'1010.0
2014-Aug-21 01:33N 59°42' E 023°54'78 9.7
2014-Aug-20 17:33N 60°09' E 026°18'10 9.8
2014-Aug-20 16:33N 60°17' E 026°31'1110.8
2014-Aug-20 15:34N 60°23' E 026°49'10 9.4
2014-Aug-20 14:32N 60°28' E 027°05'4 0.2
2014-Aug-19 19:06N 60°32' E 027°10'0 0.0
2014-Aug-19 02:33N 60°32' E 027°10'0 0.1
2014-Aug-18 23:31N 60°31' E 027°10'1 0.0
2014-Aug-18 05:27N 60°32' E 027°10'6 7.3
2014-Aug-18 04:34N 60°28' E 027°00'1110.8
2014-Aug-18 03:33N 60°22' E 026°42'1211.5
2014-Aug-18 02:34N 60°14' E 026°25'  
Track history (hours):
 
Tides and Currents Weather Stations Pressure Air Temp Water Temp Dewpoint Dewpoint Depression Visibility Wind Speed Wind Dir Waves Ship Positions

Pernille

Last reported at 2014-Aug-27 06:33 UTC. Time now 2014-Aug-27 11:09 UTC.
Position N 58°42' W 004°07'.

Length 82 m; draft 4.8 m.

Type: Cargo ship. MMSI: 212662000.

Date/timePositionNaut miles runAvg speedWind from/ knotsBaromVisibWave heightAir tempDewpointWater temp
2014-Aug-27 06:33N 58°42' W 004°07'10 9.9
2014-Aug-27 05:33N 58°43' W 003°48'1211.2
2014-Aug-27 04:31N 58°43' W 003°25'1414.8
2014-Aug-27 03:33N 58°40' W 002°59'6111.2
2014-Aug-26 22:08N 57°51' W 001°50'710.5
2014-Aug-26 21:30N 57°46' W 001°43'910.0
2014-Aug-26 20:33N 57°38' W 001°34'1110.8
2014-Aug-26 19:33N 57°27' W 001°33'1110.6
2014-Aug-26 18:33N 57°17' W 001°41'58 2.1
2014-Aug-25 15:13N 56°28' W 002°37'5 5.4
2014-Aug-25 14:21N 56°29' W 002°29'6 6.4
2014-Aug-25 13:28N 56°30' W 002°19'41110.5
2014-Aug-23 22:27N 57°49' E 010°06'910.2
2014-Aug-23 21:33N 57°48' E 010°23'1010.5
2014-Aug-23 20:34N 57°48' E 010°43'7 6.9
2014-Aug-23 19:33N 57°42' E 010°42'129 8.1
2014-Aug-23 03:34N 55°51' E 012°44'1111.4
2014-Aug-23 02:33N 55°40' E 012°42'1211.6
2014-Aug-23 01:34N 55°28' E 012°42'1110.5
2014-Aug-23 00:33N 55°18' E 012°45'1010.1
2014-Aug-22 23:33N 55°16' E 013°02'51 9.6
2014-Aug-22 18:12N 55°25' E 014°31'710.5
2014-Aug-22 17:31N 55°29' E 014°41'1110.3
2014-Aug-22 16:27N 55°35' E 014°58'4210.2
2014-Aug-22 12:22N 55°56' E 016°02'8 9.9
2014-Aug-22 11:33N 55°59' E 016°15'321 9.7
2014-Aug-21 02:33N 59°39' E 023°34'1010.0
2014-Aug-21 01:33N 59°42' E 023°54'78 9.7
2014-Aug-20 17:33N 60°09' E 026°18'10 9.8
2014-Aug-20 16:33N 60°17' E 026°31'1110.8
2014-Aug-20 15:34N 60°23' E 026°49'10 9.4
2014-Aug-20 14:32N 60°28' E 027°05'4 0.2
2014-Aug-19 19:06N 60°32' E 027°10'0 0.0
2014-Aug-19 02:33N 60°32' E 027°10'0 0.1
2014-Aug-18 23:31N 60°31' E 027°10'1 0.0
2014-Aug-18 05:27N 60°32' E 027°10'6 7.3
2014-Aug-18 04:34N 60°28' E 027°00'1110.8
2014-Aug-18 03:33N 60°22' E 026°42'1211.5
2014-Aug-18 02:34N 60°14' E 026°25'  

Dump ship's entire track history